Alafaya, FL

12:03 PM EDT on March 31, 2015 (GMT -0400)
UCF Area / WUCF-FM | | Change Station
CLOSE
Current Station
Personal Weather Station
Location: Orlando, FL
Elevation: 85 ft
Nearby Weather Stations

Elev 85 ft 28.60 °N, 81.20 °W | Updated 8 seconds ago

Partly Cloudy
Partly Cloudy
76.6 °F
Feels Like 78 °F
N
6.8
Wind Variable Wind from NW
Gusts 10.6 mph

Today
High -- | Low -- °F
--% Chance of Precip.
Yesterday
High -- | Low -- °F
Precip. -- in
7:16 AM 7:42 PM
Waxing Gibbous, 87% visible
Pressure 30.17 in
Visibility 10.0 miles
Clouds Scattered Clouds 2400 ft
Heat Index 78 °F
Dew Point 65 °F
Humidity 66%
Rainfall 0.00 in
Snow Depth Not available.
UV 9 out of 12
Pollen 10.60 out of 12
Air Quality Not available.
Flu Activity Not available.
METAR KORL 311553Z VRB05KT 10SM SCT024 24/17 A3016 RMK AO2 SLP216 T02390167

More Conditions Fewer Conditions

Pressure 30.17 in
Visibility 10.0 miles
Clouds Scattered Clouds 2400 ft
Heat Index 78 °F
Dew Point 65 °F
Humidity 66%
Rainfall 0.00 in
Snow Depth Not available.
UV 9 out of 12
Pollen 10.60 out of 12
Air Quality Not available.
Flu Activity Not available.
METAR KORL 311553Z VRB05KT 10SM SCT024 24/17 A3016 RMK AO2 SLP216 T02390167

More Conditions Fewer Conditions

Nowcast | as of 11:25 am EDT on March 31, 2015

sunny skies this afternoon... With plenty of sunshine... temperatures will climb into the low 80s inland and upper 70s along the Atlantic coast. A weak sea breeze may develop across the Treasure Coast late this afternoon. Additional details...including graphics are available online at: http://www.Srh.NOAA.Gov/mlb/blog.Php

×

10-Day Weather Forecast

Almanac

Astronomy

Mar. 31, 2015 Rise Set
Actual Time
Civil Twilight
Nautical Twilight
Astronomical Twilight
Moon
Length of Visible Light
Length of Day
Tomorrow will be .
, % of the Moon is Illuminated

Today's Extremes

State Highs State Lows

Community

WunderPhotos

Upload Photos

1,809,785 photos uploaded!

WunderBlogs® & News

Nearby

Air Quality

  Air Quality AQ Index Pollutant
Not available.

Snow Depth

Station Depth Elevation

Earthquake Activity

City Distance Mag. Time & Date
Minimum magnitude displayed is 2.5.

Coastal Water Temperatures

Place Temperature

Stations

Nearby Weather Stations

Station Location Temp. Windchill Dew Point Humidity Wind Precip. Elev Updated Type